Al Mirqab — ZCTS4 — position and weather

sailwx.info

Track history (hours):
 
Tides and Currents Weather Stations Pressure Air Temp Water Temp Dewpoint Dewpoint Depression Visibility Wind Speed Wind Dir Waves Ship Positions

Al Mirqab

Last reported at 2014-Jun-28 11:29 UTC. Time now 2014-Jul-24 17:43 UTC.
Position N 40°56' E 024°25'.
Warning: this ship's position is 26 days out of date.

Length 133 m; draft 5.1 m.

Type: Pleasure craft. MMSI: 319361000.

Date/timePositionNaut miles runAvg speedWind from/ knotsBaromVisibWave heightAir tempDewpointWater temp
2014-Jun-28 11:29N 40°56' E 024°25'0 0.0
2014-Jun-28 10:33N 40°56' E 024°25'0 0.0
2014-Jun-28 09:31N 40°56' E 024°25'0 0.0
2014-Jun-28 08:31N 40°56' E 024°25'0 0.0
2014-Jun-28 07:32N 40°56' E 024°25'0 0.1
2014-Jun-28 06:33N 40°56' E 024°25'1 0.8
2014-Jun-28 05:33N 40°56' E 024°25'0 0.0
2014-Jun-28 04:33N 40°56' E 024°25'0 0.0
2014-Jun-28 03:33N 40°56' E 024°25'0 0.1
2014-Jun-28 02:33N 40°55' E 024°25'0 0.0
2014-Jun-28 01:33N 40°56' E 024°25'0 0.0
2014-Jun-28 00:33N 40°56' E 024°25'0 0.1
2014-Jun-27 23:33N 40°55' E 024°25'1 1.1
2014-Jun-27 22:33N 40°54' E 024°25'1413.6
2014-Jun-27 21:33N 40°41' E 024°25'2013.8
2014-Jun-27 20:07N 40°21' E 024°25'814.2
2014-Jun-27 19:33N 40°13' E 024°25'10 8.8
2014-Jun-27 18:25N 40°11' E 024°13'1314.5
2014-Jun-27 17:31N 40°17' E 023°58'1 0.1
2014-Jun-27 06:09N 40°18' E 023°59'8 9.4
2014-Jun-27 05:19N 40°13' E 024°07'810.4
2014-Jun-27 04:32N 40°07' E 024°14'10 8.9
2014-Jun-27 03:27N 40°08' E 024°27'1011.2
2014-Jun-27 02:33N 40°17' E 024°20'1110.7
2014-Jun-27 01:33N 40°25' E 024°10'10 9.8
2014-Jun-27 00:33N 40°31' E 024°01'10 8.5
2014-Jun-26 23:24N 40°41' E 024°05'910.2
2014-Jun-26 22:33N 40°43' E 024°16'1010.0
2014-Jun-26 21:33N 40°46' E 024°29'10 9.8
2014-Jun-26 20:33N 40°49' E 024°41'8 7.9
2014-Jun-26 19:33N 40°43' E 024°48'1 1.0
2014-Jun-26 18:15N 40°43' E 024°46'0 0.0
2014-Jun-26 17:22N 40°43' E 024°46'0 0.0
2014-Jun-26 15:20N 40°43' E 024°46'0 0.0
2014-Jun-26 14:33N 40°43' E 024°46'0 0.0
2014-Jun-26 13:28N 40°43' E 024°46'0 0.0
2014-Jun-26 12:31N 40°43' E 024°46'0 0.0
2014-Jun-26 11:29N 40°43' E 024°46'0 0.0
2014-Jun-26 10:30N 40°43' E 024°46'0 0.0
2014-Jun-26 09:33N 40°43' E 024°46'0 0.0
2014-Jun-26 08:31N 40°43' E 024°46'0 0.0
2014-Jun-26 07:31N 40°43' E 024°46'0 0.0
2014-Jun-26 06:32N 40°43' E 024°46'0 0.0
2014-Jun-26 05:33N 40°43' E 024°46'0 0.0
2014-Jun-26 04:33N 40°43' E 024°46'0 0.0
2014-Jun-26 03:28N 40°43' E 024°46'0 0.0
2014-Jun-26 02:32N 40°43' E 024°46'0 0.0
2014-Jun-26 01:33N 40°43' E 024°46'0 0.0
2014-Jun-26 00:33N 40°43' E 024°46'0 0.0
2014-Jun-25 23:28N 40°43' E 024°46'0 0.0
2014-Jun-25 22:32N 40°43' E 024°46'0 0.0
2014-Jun-25 21:32N 40°43' E 024°46'0 0.0
2014-Jun-25 20:30N 40°43' E 024°46'0 0.0
2014-Jun-25 19:31N 40°43' E 024°46'0 0.0
2014-Jun-25 18:28N 40°43' E 024°46'0 0.0
2014-Jun-25 17:32N 40°43' E 024°46'0 0.0
2014-Jun-25 16:33N 40°43' E 024°46'0 0.0
2014-Jun-25 15:30N 40°43' E 024°46'0 0.0
2014-Jun-25 14:31N 40°43' E 024°46'0 0.0
2014-Jun-25 13:32N 40°43' E 024°46'0 0.0
2014-Jun-25 12:32N 40°43' E 024°46'0 0.0
2014-Jun-25 11:33N 40°43' E 024°46'0 0.0
2014-Jun-25 10:13N 40°43' E 024°46'0 0.0
2014-Jun-25 09:28N 40°43' E 024°46'0 0.0
2014-Jun-25 08:32N 40°43' E 024°46'0 0.0
2014-Jun-25 07:33N 40°43' E 024°46'0 0.0
2014-Jun-25 06:33N 40°43' E 024°46'0 0.0
2014-Jun-25 05:31N 40°43' E 024°46'0 0.0
2014-Jun-25 04:32N 40°43' E 024°46'0 0.0
2014-Jun-25 03:32N 40°43' E 024°46'0 0.0
2014-Jun-25 02:33N 40°43' E 024°46'0 0.0
2014-Jun-25 01:31N 40°43' E 024°46'0 0.0
2014-Jun-25 00:28N 40°43' E 024°46'0 0.0
2014-Jun-24 23:32N 40°43' E 024°46'0 0.0
2014-Jun-24 22:33N 40°43' E 024°46'0 0.0
2014-Jun-24 21:30N 40°43' E 024°46'0 0.0
2014-Jun-24 20:19N 40°43' E 024°46'0 0.0
2014-Jun-24 19:32N 40°43' E 024°46'0 0.0
2014-Jun-24 18:32N 40°43' E 024°46'0 0.2
2014-Jun-24 17:33N 40°43' E 024°47'0 0.0
2014-Jun-24 16:28N 40°43' E 024°47'0 0.0
2014-Jun-24 15:28N 40°43' E 024°47'0 0.0
2014-Jun-24 14:32N 40°43' E 024°47'0 0.0
2014-Jun-24 12:33N 40°43' E 024°47'0 0.0
2014-Jun-24 11:28N 40°43' E 024°47'0 0.0
2014-Jun-24 10:11N 40°43' E 024°47'0 0.1
2014-Jun-24 09:32N 40°43' E 024°47'1 0.6
2014-Jun-24 08:33N 40°42' E 024°47'1010.0
2014-Jun-24 07:33N 40°33' E 024°42'1313.2
2014-Jun-24 06:34N 40°22' E 024°52'1413.5
2014-Jun-24 05:31N 40°08' E 024°56'1414.2
2014-Jun-24 04:33N 39°55' E 024°59'6113.9
2014-Jun-24 00:08N 39°04' E 025°43'51 2.7
2014-Jun-23 05:09N 38°13' E 025°45'  
Track history (hours):
 
Tides and Currents Weather Stations Pressure Air Temp Water Temp Dewpoint Dewpoint Depression Visibility Wind Speed Wind Dir Waves Ship Positions

Al Mirqab

Last reported at 2014-Jun-28 11:29 UTC. Time now 2014-Jul-24 17:43 UTC.
Position N 40°56' E 024°25'.
Warning: this ship's position is 26 days out of date.

Length 133 m; draft 5.1 m.

Type: Pleasure craft. MMSI: 319361000.

Date/timePositionNaut miles runAvg speedWind from/ knotsBaromVisibWave heightAir tempDewpointWater temp
2014-Jun-28 11:29N 40°56' E 024°25'0 0.0
2014-Jun-28 10:33N 40°56' E 024°25'0 0.0
2014-Jun-28 09:31N 40°56' E 024°25'0 0.0
2014-Jun-28 08:31N 40°56' E 024°25'0 0.0
2014-Jun-28 07:32N 40°56' E 024°25'0 0.1
2014-Jun-28 06:33N 40°56' E 024°25'1 0.8
2014-Jun-28 05:33N 40°56' E 024°25'0 0.0
2014-Jun-28 04:33N 40°56' E 024°25'0 0.0
2014-Jun-28 03:33N 40°56' E 024°25'0 0.1
2014-Jun-28 02:33N 40°55' E 024°25'0 0.0
2014-Jun-28 01:33N 40°56' E 024°25'0 0.0
2014-Jun-28 00:33N 40°56' E 024°25'0 0.1
2014-Jun-27 23:33N 40°55' E 024°25'1 1.1
2014-Jun-27 22:33N 40°54' E 024°25'1413.6
2014-Jun-27 21:33N 40°41' E 024°25'2013.8
2014-Jun-27 20:07N 40°21' E 024°25'814.2
2014-Jun-27 19:33N 40°13' E 024°25'10 8.8
2014-Jun-27 18:25N 40°11' E 024°13'1314.5
2014-Jun-27 17:31N 40°17' E 023°58'1 0.1
2014-Jun-27 06:09N 40°18' E 023°59'8 9.4
2014-Jun-27 05:19N 40°13' E 024°07'810.4
2014-Jun-27 04:32N 40°07' E 024°14'10 8.9
2014-Jun-27 03:27N 40°08' E 024°27'1011.2
2014-Jun-27 02:33N 40°17' E 024°20'1110.7
2014-Jun-27 01:33N 40°25' E 024°10'10 9.8
2014-Jun-27 00:33N 40°31' E 024°01'10 8.5
2014-Jun-26 23:24N 40°41' E 024°05'910.2
2014-Jun-26 22:33N 40°43' E 024°16'1010.0
2014-Jun-26 21:33N 40°46' E 024°29'10 9.8
2014-Jun-26 20:33N 40°49' E 024°41'8 7.9
2014-Jun-26 19:33N 40°43' E 024°48'1 1.0
2014-Jun-26 18:15N 40°43' E 024°46'0 0.0
2014-Jun-26 17:22N 40°43' E 024°46'0 0.0
2014-Jun-26 15:20N 40°43' E 024°46'0 0.0
2014-Jun-26 14:33N 40°43' E 024°46'0 0.0
2014-Jun-26 13:28N 40°43' E 024°46'0 0.0
2014-Jun-26 12:31N 40°43' E 024°46'0 0.0
2014-Jun-26 11:29N 40°43' E 024°46'0 0.0
2014-Jun-26 10:30N 40°43' E 024°46'0 0.0
2014-Jun-26 09:33N 40°43' E 024°46'0 0.0
2014-Jun-26 08:31N 40°43' E 024°46'0 0.0
2014-Jun-26 07:31N 40°43' E 024°46'0 0.0
2014-Jun-26 06:32N 40°43' E 024°46'0 0.0
2014-Jun-26 05:33N 40°43' E 024°46'0 0.0
2014-Jun-26 04:33N 40°43' E 024°46'0 0.0
2014-Jun-26 03:28N 40°43' E 024°46'0 0.0
2014-Jun-26 02:32N 40°43' E 024°46'0 0.0
2014-Jun-26 01:33N 40°43' E 024°46'0 0.0
2014-Jun-26 00:33N 40°43' E 024°46'0 0.0
2014-Jun-25 23:28N 40°43' E 024°46'0 0.0
2014-Jun-25 22:32N 40°43' E 024°46'0 0.0
2014-Jun-25 21:32N 40°43' E 024°46'0 0.0
2014-Jun-25 20:30N 40°43' E 024°46'0 0.0
2014-Jun-25 19:31N 40°43' E 024°46'0 0.0
2014-Jun-25 18:28N 40°43' E 024°46'0 0.0
2014-Jun-25 17:32N 40°43' E 024°46'0 0.0
2014-Jun-25 16:33N 40°43' E 024°46'0 0.0
2014-Jun-25 15:30N 40°43' E 024°46'0 0.0
2014-Jun-25 14:31N 40°43' E 024°46'0 0.0
2014-Jun-25 13:32N 40°43' E 024°46'0 0.0
2014-Jun-25 12:32N 40°43' E 024°46'0 0.0
2014-Jun-25 11:33N 40°43' E 024°46'0 0.0
2014-Jun-25 10:13N 40°43' E 024°46'0 0.0
2014-Jun-25 09:28N 40°43' E 024°46'0 0.0
2014-Jun-25 08:32N 40°43' E 024°46'0 0.0
2014-Jun-25 07:33N 40°43' E 024°46'0 0.0
2014-Jun-25 06:33N 40°43' E 024°46'0 0.0
2014-Jun-25 05:31N 40°43' E 024°46'0 0.0
2014-Jun-25 04:32N 40°43' E 024°46'0 0.0
2014-Jun-25 03:32N 40°43' E 024°46'0 0.0
2014-Jun-25 02:33N 40°43' E 024°46'0 0.0
2014-Jun-25 01:31N 40°43' E 024°46'0 0.0
2014-Jun-25 00:28N 40°43' E 024°46'0 0.0
2014-Jun-24 23:32N 40°43' E 024°46'0 0.0
2014-Jun-24 22:33N 40°43' E 024°46'0 0.0
2014-Jun-24 21:30N 40°43' E 024°46'0 0.0
2014-Jun-24 20:19N 40°43' E 024°46'0 0.0
2014-Jun-24 19:32N 40°43' E 024°46'0 0.0
2014-Jun-24 18:32N 40°43' E 024°46'0 0.2
2014-Jun-24 17:33N 40°43' E 024°47'0 0.0
2014-Jun-24 16:28N 40°43' E 024°47'0 0.0
2014-Jun-24 15:28N 40°43' E 024°47'0 0.0
2014-Jun-24 14:32N 40°43' E 024°47'0 0.0
2014-Jun-24 12:33N 40°43' E 024°47'0 0.0
2014-Jun-24 11:28N 40°43' E 024°47'0 0.0
2014-Jun-24 10:11N 40°43' E 024°47'0 0.1
2014-Jun-24 09:32N 40°43' E 024°47'1 0.6
2014-Jun-24 08:33N 40°42' E 024°47'1010.0
2014-Jun-24 07:33N 40°33' E 024°42'1313.2
2014-Jun-24 06:34N 40°22' E 024°52'1413.5
2014-Jun-24 05:31N 40°08' E 024°56'1414.2
2014-Jun-24 04:33N 39°55' E 024°59'6113.9
2014-Jun-24 00:08N 39°04' E 025°43'51 2.7
2014-Jun-23 05:09N 38°13' E 025°45'  

Dump ship's entire track history